Time;durP1;ratioP1;P1;durP2;ratioP2;P2;SDS_P1;SDS_P2;PMS_P1;PMS_P2;Temp;Humidity;BMP_temperature;BMP_pressure;BME280_temperature;BME280_humidity;BME280_pressure;Samples;Min_cycle;Max_cycle;Signal;HPM_P1;HPM_P2
2021/08/22 00:00:25;;;;;;;5.30;4.80;;;21.50;99.90;;;;;;5066282;28;20056;-76
2021/08/22 00:02:50;;;;;;;5.68;4.60;;;21.50;99.90;;;;;;5062082;28;20052;-76
2021/08/22 00:05:16;;;;;;;8.13;5.15;;;21.50;99.90;;;;;;5060442;28;20103;-76
2021/08/22 00:07:42;;;;;;;5.60;4.53;;;21.50;99.90;;;;;;5062220;28;20047;-76
2021/08/22 00:10:08;;;;;;;7.22;3.83;;;21.50;99.90;;;;;;5062452;28;20043;-76
2021/08/22 00:12:33;;;;;;;3.70;3.40;;;21.40;99.90;;;;;;5044847;28;20405;-76
2021/08/22 00:14:59;;;;;;;4.63;3.50;;;21.30;99.90;;;;;;5057850;28;20025;-76
2021/08/22 00:17:25;;;;;;;3.55;3.25;;;21.30;99.90;;;;;;5060482;28;20029;-76
2021/08/22 00:19:52;;;;;;;6.43;4.78;;;21.30;99.90;;;;;;5061743;28;20095;-75
2021/08/22 00:22:18;;;;;;;5.68;3.58;;;21.20;99.90;;;;;;5066396;28;20036;-76
2021/08/22 00:24:43;;;;;;;5.53;4.65;;;21.20;99.90;;;;;;5069088;28;20078;-76
2021/08/22 00:27:09;;;;;;;8.18;4.40;;;21.30;99.90;;;;;;5062253;28;20036;-75
2021/08/22 00:29:35;;;;;;;6.43;4.53;;;21.20;99.90;;;;;;5062745;28;20024;-76
2021/08/22 00:32:01;;;;;;;5.13;4.70;;;21.30;99.90;;;;;;5062477;28;20048;-76
2021/08/22 00:34:27;;;;;;;6.00;5.15;;;21.20;99.90;;;;;;5068766;28;20032;-76
2021/08/22 00:36:54;;;;;;;9.15;5.10;;;21.20;99.90;;;;;;5061592;28;20107;-75
2021/08/22 00:39:21;;;;;;;7.10;4.82;;;21.20;99.90;;;;;;5063806;28;20013;-75
2021/08/22 00:41:47;;;;;;;6.97;5.78;;;21.10;99.90;;;;;;5063829;28;20044;-76
2021/08/22 00:44:12;;;;;;;6.78;5.88;;;21.10;99.90;;;;;;5059853;28;20103;-76
2021/08/22 00:46:38;;;;;;;7.75;6.97;;;21.10;99.90;;;;;;5060829;28;20194;-75
2021/08/22 00:49:05;;;;;;;8.35;7.47;;;21.10;99.90;;;;;;5060114;28;20033;-74
2021/08/22 00:51:32;;;;;;;8.82;7.82;;;21.10;99.90;;;;;;5062000;28;20025;-76
2021/08/22 00:53:58;;;;;;;11.05;9.15;;;21.10;99.90;;;;;;5063233;28;20068;-77
2021/08/22 00:56:24;;;;;;;13.60;10.30;;;21.20;99.90;;;;;;5066818;28;20115;-76
2021/08/22 00:58:49;;;;;;;11.93;9.18;;;21.20;99.90;;;;;;5069830;28;20024;-75
2021/08/22 01:01:17;;;;;;;13.65;10.93;;;21.10;99.90;;;;;;5066006;28;20155;-76
2021/08/22 01:03:53;;;;;;;13.32;11.80;;;21.10;99.90;;;;;;5063578;28;20024;-77
2021/08/22 01:06:46;;;;;;;12.90;11.50;;;21.10;99.90;;;;;;5051616;28;20028;-76
2021/08/22 01:09:17;;;;;;;15.35;10.68;;;21.20;99.90;;;;;;5066618;28;20016;-76
2021/08/22 01:11:45;;;;;;;14.70;12.43;;;21.20;99.90;;;;;;5065752;28;20029;-76
2021/08/22 01:14:16;;;;;;;17.00;13.75;;;21.20;99.90;;;;;;5061715;28;20014;-75
2021/08/22 01:16:50;;;;;;;17.48;12.82;;;21.20;99.90;;;;;;5068365;28;20036;-76
2021/08/22 01:19:48;;;;;;;18.33;14.15;;;21.30;99.90;;;;;;5066861;28;20029;-76
2021/08/22 01:22:17;;;;;;;19.33;14.70;;;21.20;99.90;;;;;;5058517;28;20112;-76
2021/08/22 01:24:45;;;;;;;20.50;16.35;;;21.20;99.90;;;;;;5066454;28;20028;-76
2021/08/22 01:27:12;;;;;;;19.42;14.93;;;21.20;99.90;;;;;;5066502;28;20078;-76
2021/08/22 01:29:44;;;;;;;16.38;13.40;;;21.30;99.90;;;;;;5066465;28;20028;-76
2021/08/22 01:32:12;;;;;;;21.27;16.35;;;21.30;99.90;;;;;;5066245;28;20044;-76
2021/08/22 01:34:39;;;;;;;22.67;15.88;;;21.30;99.90;;;;;;5065221;28;20087;-76
2021/08/22 01:37:05;;;;;;;23.30;17.13;;;21.30;99.90;;;;;;5062160;28;20057;-76
2021/08/22 01:39:32;;;;;;;20.05;15.90;;;21.30;99.90;;;;;;5062855;28;20067;-76
2021/08/22 01:41:59;;;;;;;22.42;17.05;;;21.30;99.90;;;;;;5061166;28;20264;-76
2021/08/22 01:44:26;;;;;;;24.63;19.02;;;21.30;99.90;;;;;;5061906;28;20073;-76
2021/08/22 01:46:52;;;;;;;25.73;19.77;;;21.20;99.90;;;;;;5067575;28;20017;-76
2021/08/22 01:49:19;;;;;;;25.92;18.90;;;21.30;99.90;;;;;;5063308;28;20397;-76
2021/08/22 01:51:45;;;;;;;25.13;18.17;;;21.10;99.90;;;;;;5052212;28;20466;-77
2021/08/22 01:54:11;;;;;;;20.45;18.17;;;21.10;99.90;;;;;;5062644;28;20374;-76
2021/08/22 01:56:39;;;;;;;24.67;19.88;;;21.20;99.90;;;;;;5060168;28;20100;-76
2021/08/22 01:59:05;;;;;;;30.92;21.15;;;21.20;99.90;;;;;;5062484;28;20016;-76
2021/08/22 02:01:33;;;;;;;25.70;20.70;;;21.20;99.90;;;;;;5062182;28;20042;-76
2021/08/22 02:04:25;;;;;;;25.67;18.75;;;21.10;99.90;;;;;;5066496;28;20031;-77
2021/08/22 02:07:00;;;;;;;23.87;20.23;;;21.20;99.90;;;;;;5052279;28;20025;-76
2021/08/22 02:09:33;;;;;;;26.88;19.02;;;21.20;99.90;;;;;;5059369;28;20103;-77
2021/08/22 02:12:06;;;;;;;25.00;20.40;;;21.20;99.90;;;;;;5061200;28;20119;-76
2021/08/22 02:14:35;;;;;;;24.05;20.33;;;21.20;99.90;;;;;;5063296;28;20017;-76
2021/08/22 02:17:03;;;;;;;29.85;21.83;;;21.30;99.90;;;;;;5064703;28;20500;-76
2021/08/22 02:19:29;;;;;;;29.67;21.52;;;21.30;99.90;;;;;;5065779;28;20452;-76
2021/08/22 02:21:56;;;;;;;30.75;22.13;;;21.30;99.90;;;;;;5063916;28;20016;-76
2021/08/22 02:24:23;;;;;;;27.08;21.13;;;21.20;99.90;;;;;;5062014;28;20044;-77
2021/08/22 02:26:48;;;;;;;28.38;22.13;;;21.10;99.90;;;;;;5066095;28;20031;-76
2021/08/22 02:29:14;;;;;;;36.10;25.42;;;21.10;99.90;;;;;;5062733;28;20022;-74
2021/08/22 02:31:40;;;;;;;35.35;23.70;;;21.10;99.90;;;;;;5068304;28;20392;-76
2021/08/22 02:34:05;;;;;;;35.42;23.45;;;21.10;99.90;;;;;;5066567;28;20111;-77
2021/08/22 02:36:31;;;;;;;34.85;23.38;;;21.00;99.90;;;;;;5066790;28;20032;-76
2021/08/22 02:38:57;;;;;;;36.15;24.10;;;21.00;99.90;;;;;;5051851;28;20029;-75
2021/08/22 02:41:23;;;;;;;45.20;28.23;;;21.00;99.90;;;;;;5063054;28;20503;-76
2021/08/22 02:43:49;;;;;;;41.90;26.65;;;21.00;99.90;;;;;;5051520;28;20029;-76
2021/08/22 02:46:14;;;;;;;43.22;26.65;;;21.00;99.90;;;;;;5068545;28;20021;-76
2021/08/22 02:48:40;;;;;;;48.78;29.15;;;21.10;99.90;;;;;;5058329;28;20055;-77
2021/08/22 02:51:06;;;;;;;54.67;30.63;;;21.10;99.90;;;;;;5048255;28;20123;-77
2021/08/22 02:53:33;;;;;;;59.95;32.20;;;21.20;99.90;;;;;;5061977;28;20044;-76
2021/08/22 02:55:59;;;;;;;44.88;29.20;;;21.10;99.90;;;;;;5065658;28;20036;-76
2021/08/22 02:58:24;;;;;;;44.95;28.27;;;21.10;99.90;;;;;;5064705;28;20025;-76
2021/08/22 03:00:50;;;;;;;53.88;31.80;;;21.10;99.90;;;;;;5063522;28;20431;-76
2021/08/22 03:03:16;;;;;;;53.38;30.88;;;21.10;99.90;;;;;;5062660;28;20024;-76
2021/08/22 03:05:41;;;;;;;48.78;32.10;;;21.10;99.90;;;;;;5059970;28;20020;-76
2021/08/22 03:08:07;;;;;;;49.72;31.13;;;21.00;99.90;;;;;;5065505;28;20511;-77
2021/08/22 03:10:33;;;;;;;55.53;33.40;;;21.00;99.90;;;;;;5069133;28;20380;-76
2021/08/22 03:12:59;;;;;;;50.95;32.22;;;21.00;99.90;;;;;;5057687;28;20044;-76
2021/08/22 03:15:25;;;;;;;47.75;30.95;;;21.00;99.90;;;;;;5063021;28;20031;-77
2021/08/22 03:17:50;;;;;;;54.47;32.47;;;21.00;99.90;;;;;;5065567;28;20523;-77
2021/08/22 03:20:17;;;;;;;53.13;32.45;;;20.90;99.90;;;;;;5063881;28;20025;-76
2021/08/22 03:22:45;;;;;;;54.33;32.50;;;20.90;99.90;;;;;;5066367;28;20051;-77
2021/08/22 03:25:13;;;;;;;50.47;30.33;;;20.80;99.90;;;;;;5060500;28;20078;-77
2021/08/22 03:27:38;;;;;;;52.13;33.15;;;20.90;99.90;;;;;;5066412;28;20033;-76
2021/08/22 03:30:04;;;;;;;45.53;32.40;;;21.00;99.90;;;;;;5060452;28;20025;-77
2021/08/22 03:32:30;;;;;;;51.35;32.53;;;20.90;99.90;;;;;;5069127;28;20072;-76
2021/08/22 03:34:57;;;;;;;47.50;30.00;;;20.90;99.90;;;;;;5062184;28;20063;-77
2021/08/22 03:37:23;;;;;;;70.10;36.20;;;20.90;99.90;;;;;;5071779;28;20021;-77
2021/08/22 03:39:48;;;;;;;60.63;35.90;;;20.90;99.90;;;;;;5061894;28;20033;-76
2021/08/22 03:42:14;;;;;;;49.40;34.53;;;20.90;99.90;;;;;;5049617;28;20396;-77
2021/08/22 03:44:40;;;;;;;48.65;32.47;;;20.80;99.90;;;;;;5074289;28;20079;-77
2021/08/22 03:47:06;;;;;;;48.42;32.28;;;20.80;99.90;;;;;;5051601;28;20028;-76
2021/08/22 03:49:32;;;;;;;55.17;34.13;;;20.70;99.90;;;;;;5068330;28;20388;-76
2021/08/22 03:51:58;;;;;;;58.20;34.60;;;20.70;99.90;;;;;;5072746;28;20029;-77
2021/08/22 03:54:24;;;;;;;55.47;34.15;;;20.70;99.90;;;;;;5070561;28;20044;-77
2021/08/22 03:56:49;;;;;;;53.45;33.53;;;20.60;99.90;;;;;;5068822;28;20017;-76
2021/08/22 03:59:15;;;;;;;50.90;33.00;;;20.70;99.90;;;;;;5066685;28;20050;-76
2021/08/22 04:01:41;;;;;;;47.70;30.13;;;20.70;99.90;;;;;;5068042;28;20100;-77
2021/08/22 04:04:06;;;;;;;55.58;33.88;;;20.70;99.90;;;;;;5067476;28;20107;-77
2021/08/22 04:06:33;;;;;;;53.92;33.25;;;20.70;99.90;;;;;;5061911;28;20393;-77
2021/08/22 04:09:00;;;;;;;51.92;32.35;;;20.70;99.90;;;;;;5048353;28;20036;-76
2021/08/22 04:11:27;;;;;;;55.95;34.00;;;20.70;99.90;;;;;;5064456;28;20017;-77
2021/08/22 04:13:53;;;;;;;48.75;32.50;;;20.70;99.90;;;;;;5068413;28;20473;-77
2021/08/22 04:16:19;;;;;;;56.85;33.80;;;20.70;99.90;;;;;;5066253;28;20021;-77
2021/08/22 04:18:44;;;;;;;49.78;32.53;;;20.80;99.90;;;;;;5068485;28;20058;-77
2021/08/22 04:21:10;;;;;;;50.80;32.28;;;20.70;99.90;;;;;;5065210;28;20020;-78
2021/08/22 04:23:38;;;;;;;58.33;34.60;;;20.60;99.90;;;;;;5068137;28;20029;-77
2021/08/22 04:26:04;;;;;;;60.70;36.75;;;20.70;99.90;;;;;;5072833;28;20024;-77
2021/08/22 04:28:29;;;;;;;59.15;35.20;;;20.60;99.90;;;;;;5072015;28;20024;-77
2021/08/22 04:30:55;;;;;;;66.95;37.50;;;20.70;99.90;;;;;;5068366;28;20159;-77
2021/08/22 04:33:20;;;;;;;52.70;36.45;;;20.60;99.90;;;;;;5050788;28;20033;-77
2021/08/22 04:35:46;;;;;;;50.05;33.03;;;20.50;99.90;;;;;;5068295;28;20108;-77
2021/08/22 04:38:12;;;;;;;62.42;35.63;;;20.50;99.90;;;;;;5072763;28;20056;-76
2021/08/22 04:40:38;;;;;;;57.78;34.35;;;20.50;99.90;;;;;;5067958;28;20428;-76
2021/08/22 04:43:05;;;;;;;57.72;35.83;;;20.60;99.90;;;;;;5071077;28;20082;-77
2021/08/22 04:45:31;;;;;;;59.90;34.47;;;20.50;99.90;;;;;;5059826;28;20050;-77
2021/08/22 04:47:57;;;;;;;62.88;38.47;;;20.50;99.90;;;;;;5068526;28;20104;-77
2021/08/22 04:50:22;;;;;;;58.85;35.38;;;20.60;99.90;;;;;;5069697;28;20035;-77
2021/08/22 04:52:48;;;;;;;58.65;35.55;;;20.60;99.90;;;;;;5062053;28;20040;-77
2021/08/22 04:55:14;;;;;;;56.67;33.80;;;20.60;99.90;;;;;;5069476;28;20082;-78
2021/08/22 04:57:39;;;;;;;57.22;33.88;;;20.60;99.90;;;;;;5071595;28;20433;-77
2021/08/22 05:00:06;;;;;;;56.55;34.47;;;20.50;99.90;;;;;;5065077;28;20376;-77
2021/08/22 05:02:32;;;;;;;62.33;35.92;;;20.50;99.90;;;;;;5067241;28;20032;-77
2021/08/22 05:04:58;;;;;;;59.03;32.47;;;20.50;99.90;;;;;;5062671;28;20423;-76
2021/08/22 05:07:23;;;;;;;51.85;32.47;;;20.50;99.90;;;;;;5069515;28;20032;-77
2021/08/22 05:09:49;;;;;;;55.33;32.78;;;20.50;99.90;;;;;;5069514;28;20170;-76
2021/08/22 05:12:15;;;;;;;51.17;31.63;;;20.50;99.90;;;;;;5066103;28;20037;-76
2021/08/22 05:14:40;;;;;;;52.78;30.92;;;20.50;99.90;;;;;;5067859;28;20020;-77
2021/08/22 05:17:06;;;;;;;55.15;30.88;;;20.50;99.90;;;;;;5062339;28;20017;-76
2021/08/22 05:19:33;;;;;;;50.10;30.08;;;20.50;99.90;;;;;;5068153;28;20025;-76
2021/08/22 05:21:59;;;;;;;48.83;29.15;;;20.40;99.90;;;;;;5071736;28;20024;-76
2021/08/22 05:24:25;;;;;;;54.35;31.08;;;20.40;99.90;;;;;;5064829;28;20032;-76
2021/08/22 05:26:50;;;;;;;47.25;28.42;;;20.50;99.90;;;;;;5068440;28;20021;-76
2021/08/22 05:29:16;;;;;;;55.40;30.73;;;20.50;99.90;;;;;;5066495;28;20027;-76
2021/08/22 05:31:42;;;;;;;46.72;28.52;;;20.50;99.90;;;;;;5062803;28;20097;-76
2021/08/22 05:34:07;;;;;;;44.03;27.70;;;20.50;99.90;;;;;;5062402;28;20051;-76
2021/08/22 05:36:37;;;;;;;42.30;26.50;;;20.50;99.90;;;;;;5070011;28;20043;-75
2021/08/22 05:39:04;;;;;;;46.72;27.30;;;20.50;99.90;;;;;;5057029;28;20388;-76
2021/08/22 05:41:30;;;;;;;38.13;25.38;;;20.50;99.90;;;;;;5063731;28;20020;-77
2021/08/22 05:43:55;;;;;;;46.20;28.45;;;20.40;99.90;;;;;;5067142;28;20065;-76
2021/08/22 05:46:21;;;;;;;50.97;26.58;;;20.40;99.90;;;;;;5061983;28;20016;-76
2021/08/22 05:48:47;;;;;;;38.22;24.17;;;20.50;99.90;;;;;;5065189;28;20028;-76
2021/08/22 05:51:17;;;;;;;43.08;27.75;;;20.50;99.90;;;;;;5062702;28;20028;-76
2021/08/22 05:53:43;;;;;;;38.47;26.88;;;20.40;99.90;;;;;;5059968;28;20033;-76
2021/08/22 05:56:09;;;;;;;38.72;26.30;;;20.40;99.90;;;;;;5045418;28;20481;-77
2021/08/22 05:58:36;;;;;;;43.92;27.40;;;20.50;99.90;;;;;;5060396;28;20389;-77
2021/08/22 06:01:01;;;;;;;41.97;25.80;;;20.50;99.90;;;;;;5067097;28;20532;-76
2021/08/22 06:03:27;;;;;;;37.25;24.92;;;20.60;99.90;;;;;;5054784;28;20131;-78
2021/08/22 06:05:53;;;;;;;37.58;25.33;;;20.50;99.90;;;;;;5067872;28;20021;-77
2021/08/22 06:08:19;;;;;;;41.72;26.70;;;20.60;99.90;;;;;;5049382;28;20390;-76
2021/08/22 06:10:45;;;;;;;39.25;26.52;;;20.60;99.90;;;;;;5067808;28;20030;-78
2021/08/22 06:13:11;;;;;;;43.03;28.40;;;20.60;99.90;;;;;;5070074;28;20427;-75
2021/08/22 06:15:37;;;;;;;44.72;28.52;;;20.50;99.90;;;;;;5068179;28;20009;-76
2021/08/22 06:18:02;;;;;;;40.97;26.65;;;20.50;99.90;;;;;;5052031;28;20372;-76
2021/08/22 06:20:28;;;;;;;37.28;25.52;;;20.50;99.90;;;;;;5069731;28;20103;-77
2021/08/22 06:22:54;;;;;;;42.38;27.25;;;20.50;99.90;;;;;;5069399;28;20024;-77
2021/08/22 06:25:20;;;;;;;38.95;29.33;;;20.60;99.90;;;;;;5049923;28;20033;-75
2021/08/22 06:27:46;;;;;;;41.08;29.92;;;20.60;99.90;;;;;;5061754;28;20096;-78
2021/08/22 06:30:12;;;;;;;38.17;26.55;;;20.60;99.90;;;;;;5063656;28;20024;-74
2021/08/22 06:32:38;;;;;;;52.58;31.15;;;20.60;99.90;;;;;;5067262;28;20029;-78
2021/08/22 06:35:04;;;;;;;49.80;31.73;;;20.70;99.90;;;;;;5063112;28;20572;-77
2021/08/22 06:37:30;;;;;;;46.35;30.30;;;20.70;99.90;;;;;;5064840;28;20044;-78
2021/08/22 06:39:56;;;;;;;42.33;29.50;;;20.70;99.90;;;;;;5048667;28;20075;-76
2021/08/22 06:42:21;;;;;;;34.53;24.08;;;20.70;99.90;;;;;;5068247;28;20632;-77
2021/08/22 06:44:47;;;;;;;35.38;24.92;;;20.60;99.90;;;;;;5062591;28;20024;-75
2021/08/22 06:47:12;;;;;;;31.13;22.40;;;20.70;99.90;;;;;;5062996;28;20054;-77
2021/08/22 06:49:39;;;;;;;29.65;19.27;;;20.70;99.90;;;;;;5066522;28;20032;-76
2021/08/22 06:52:05;;;;;;;33.00;21.48;;;20.60;99.90;;;;;;5062727;28;20130;-76
2021/08/22 06:54:31;;;;;;;26.48;20.05;;;20.70;99.90;;;;;;5064569;28;20041;-76
2021/08/22 06:56:57;;;;;;;23.55;17.70;;;20.70;99.90;;;;;;5061035;28;20032;-77
2021/08/22 06:59:24;;;;;;;23.42;17.33;;;20.80;99.90;;;;;;5069913;28;20099;-76
2021/08/22 07:01:50;;;;;;;23.40;18.35;;;20.70;99.90;;;;;;5066786;28;20059;-76
2021/08/22 07:04:16;;;;;;;20.25;16.73;;;20.70;99.90;;;;;;5057763;28;20448;-76
2021/08/22 07:06:42;;;;;;;23.15;17.42;;;20.70;99.90;;;;;;5064276;28;20055;-77
2021/08/22 07:09:08;;;;;;;21.13;15.88;;;20.80;99.90;;;;;;5059340;28;20055;-77
2021/08/22 07:11:34;;;;;;;18.52;13.77;;;20.70;99.90;;;;;;5061348;28;20456;-76
2021/08/22 07:13:59;;;;;;;22.83;15.15;;;20.70;99.90;;;;;;5072652;28;20392;-77
2021/08/22 07:16:26;;;;;;;17.23;14.82;;;20.80;99.90;;;;;;5067388;28;20501;-77
2021/08/22 07:18:52;;;;;;;18.75;13.68;;;20.80;99.90;;;;;;5063212;28;20029;-76
2021/08/22 07:21:18;;;;;;;18.60;14.10;;;20.80;99.90;;;;;;5069769;28;20049;-76
2021/08/22 07:23:44;;;;;;;18.63;13.63;;;20.80;99.90;;;;;;5072354;28;20060;-76
2021/08/22 07:26:12;;;;;;;17.05;12.55;;;20.80;99.90;;;;;;5071385;28;20040;-76
2021/08/22 07:28:38;;;;;;;15.43;13.07;;;20.80;99.90;;;;;;5055330;28;20056;-76
2021/08/22 07:31:06;;;;;;;14.15;10.55;;;20.80;99.90;;;;;;5071483;28;20048;-76
2021/08/22 07:33:33;;;;;;;13.18;10.30;;;20.80;99.90;;;;;;5070954;28;20083;-76
2021/08/22 07:36:00;;;;;;;15.07;10.15;;;20.90;99.90;;;;;;5074212;28;20551;-77
2021/08/22 07:38:25;;;;;;;13.38;9.18;;;20.80;99.90;;;;;;5072457;28;20465;-76
2021/08/22 07:40:51;;;;;;;10.75;8.77;;;20.80;99.90;;;;;;5073628;28;20033;-77
2021/08/22 07:43:17;;;;;;;10.35;8.63;;;20.80;99.90;;;;;;5066758;28;20100;-77
2021/08/22 07:45:43;;;;;;;13.45;8.20;;;20.90;99.90;;;;;;5071666;28;20066;-76
2021/08/22 07:48:09;;;;;;;11.70;8.18;;;21.00;99.90;;;;;;5071286;28;20033;-76
2021/08/22 07:50:35;;;;;;;13.02;9.55;;;21.00;99.90;;;;;;5070362;28;20047;-77
2021/08/22 07:53:01;;;;;;;11.93;8.57;;;21.10;99.90;;;;;;5071658;28;20055;-76
2021/08/22 07:55:27;;;;;;;9.00;8.05;;;21.10;99.90;;;;;;5057569;28;20070;-76
2021/08/22 07:57:52;;;;;;;13.63;9.15;;;21.20;99.90;;;;;;5064411;28;20386;-76
2021/08/22 08:00:18;;;;;;;9.55;8.15;;;21.20;99.90;;;;;;5067421;28;20025;-76
2021/08/22 08:02:44;;;;;;;12.23;9.30;;;21.30;99.90;;;;;;5067798;28;20071;-76
2021/08/22 08:05:10;;;;;;;15.60;10.15;;;21.20;99.90;;;;;;5056036;28;20025;-76
2021/08/22 08:07:36;;;;;;;8.45;7.55;;;21.30;99.90;;;;;;5071940;28;20032;-76
2021/08/22 08:10:03;;;;;;;10.13;7.55;;;21.40;99.90;;;;;;5074297;28;20483;-76
2021/08/22 08:12:29;;;;;;;9.52;7.85;;;21.60;99.90;;;;;;5067764;28;20036;-77
2021/08/22 08:14:56;;;;;;;8.45;6.70;;;21.60;99.90;;;;;;5065948;28;20032;-76
2021/08/22 08:17:22;;;;;;;7.72;6.40;;;21.60;99.90;;;;;;5066662;28;20485;-76
2021/08/22 08:19:48;;;;;;;9.55;5.97;;;21.60;99.90;;;;;;5060062;28;20009;-76
2021/08/22 08:22:14;;;;;;;7.35;6.10;;;21.40;99.90;;;;;;5067724;28;20044;-75
2021/08/22 08:24:39;;;;;;;12.25;6.18;;;21.30;99.90;;;;;;5070039;28;20029;-76
2021/08/22 08:27:05;;;;;;;8.70;5.28;;;21.30;99.90;;;;;;5065745;28;20025;-75
2021/08/22 08:29:31;;;;;;;9.02;5.07;;;21.20;99.90;;;;;;5066327;28;20038;-76
2021/08/22 08:31:56;;;;;;;6.80;4.70;;;21.10;99.90;;;;;;5065092;28;20116;-76
2021/08/22 08:34:22;;;;;;;8.82;5.20;;;21.20;99.90;;;;;;5048622;28;20029;-76
2021/08/22 08:36:47;;;;;;;7.45;5.82;;;21.30;99.90;;;;;;5065152;28;20033;-75
2021/08/22 08:39:13;;;;;;;7.75;5.05;;;21.20;99.90;;;;;;5064881;28;20374;-75
2021/08/22 08:41:38;;;;;;;8.57;5.15;;;21.20;99.90;;;;;;5068399;28;20584;-75
2021/08/22 08:44:05;;;;;;;6.75;4.78;;;21.20;99.90;;;;;;5070413;28;20055;-76
2021/08/22 08:46:39;;;;;;;6.07;4.90;;;21.30;99.90;;;;;;5054821;28;20024;-75
2021/08/22 08:49:26;;;;;;;7.97;5.43;;;21.30;99.90;;;;;;5067531;28;20056;-75
2021/08/22 08:52:02;;;;;;;9.20;5.10;;;21.30;99.90;;;;;;5059061;28;20126;-75
2021/08/22 08:54:47;;;;;;;6.15;5.35;;;21.40;99.90;;;;;;5063040;28;20516;-76
2021/08/22 08:57:14;;;;;;;6.65;5.32;;;21.40;99.90;;;;;;5066165;28;20032;-75
2021/08/22 08:59:41;;;;;;;7.43;5.57;;;21.60;99.90;;;;;;5060443;28;20028;-75
2021/08/22 09:02:06;;;;;;;8.10;5.88;;;21.70;99.90;;;;;;5067767;28;20025;-76
2021/08/22 09:04:59;;;;;;;6.28;5.63;;;21.70;99.90;;;;;;5062910;28;20021;-76
2021/08/22 09:07:27;;;;;;;6.53;5.05;;;21.80;99.90;;;;;;5065764;28;20055;-76
2021/08/22 09:10:31;;;;;;;9.02;6.40;;;21.80;99.90;;;;;;5063365;28;20024;-75
2021/08/22 09:13:18;;;;;;;10.50;5.70;;;21.80;99.90;;;;;;5064904;28;20409;-76
2021/08/22 09:16:05;;;;;;;11.25;6.15;;;21.80;99.90;;;;;;5067015;28;20081;-75
2021/08/22 09:19:07;;;;;;;9.57;5.63;;;21.70;99.90;;;;;;5069502;28;20107;-77
2021/08/22 09:21:54;;;;;;;10.52;5.53;;;21.70;99.90;;;;;;5064865;28;20033;-76
2021/08/22 09:24:57;;;;;;;11.07;5.30;;;21.60;99.90;;;;;;5064002;28;20116;-75
2021/08/22 09:28:07;;;;;;;7.13;4.90;;;21.60;99.90;;;;;;5061937;28;20036;-74
2021/08/22 09:31:09;;;;;;;8.32;5.60;;;21.70;99.90;;;;;;5009967;28;20486;-74
2021/08/22 09:34:12;;;;;;;10.15;4.53;;;21.90;99.90;;;;;;5008472;28;20096;-74
2021/08/22 09:37:06;;;;;;;10.55;4.47;;;22.20;99.90;;;;;;5066470;28;20020;-74
2021/08/22 09:40:03;;;;;;;7.90;4.43;;;22.50;99.90;;;;;;5044281;28;20021;-74
2021/08/22 09:42:59;;;;;;;9.38;3.92;;;22.60;99.90;;;;;;5066515;28;20029;-74
2021/08/22 09:46:02;;;;;;;9.57;4.70;;;22.50;99.90;;;;;;5070262;28;20028;-74
2021/08/22 09:48:46;;;;;;;;;;;22.40;99.90;;;;;;5063675;28;20034;-76
2021/08/22 09:51:49;;;;;;;11.15;4.95;;;22.30;99.90;;;;;;5061525;28;20360;-76
2021/08/22 09:54:33;;;;;;;8.80;4.50;;;22.30;99.90;;;;;;5050776;28;20498;-76
2021/08/22 09:57:08;;;;;;;8.65;4.45;;;22.30;99.90;;;;;;5051209;28;20370;-74
2021/08/22 10:00:00;;;;;;;8.05;4.68;;;22.20;99.90;;;;;;5067425;28;20028;-76
2021/08/22 10:02:59;;;;;;;8.65;4.30;;;22.10;99.90;;;;;;5057922;28;20094;-75
2021/08/22 10:05:31;;;;;;;10.93;4.90;;;22.30;99.90;;;;;;5068395;28;20037;-76
2021/08/22 10:08:28;;;;;;;11.93;4.97;;;22.10;99.90;;;;;;5065504;28;20032;-75
2021/08/22 10:11:04;;;;;;;12.40;5.88;;;22.20;99.90;;;;;;5064415;28;20056;-76
2021/08/22 10:13:30;;;;;;;11.98;4.80;;;22.10;99.90;;;;;;5070922;28;20030;-76
2021/08/22 10:15:56;;;;;;;5.03;3.88;;;22.20;99.90;;;;;;5066150;28;20047;-77
2021/08/22 10:18:23;;;;;;;8.75;4.68;;;22.20;99.90;;;;;;5051687;28;20531;-77
2021/08/22 10:20:49;;;;;;;10.98;4.63;;;22.20;99.90;;;;;;5066833;28;20404;-76
2021/08/22 10:23:35;;;;;;;8.02;4.53;;;22.30;99.90;;;;;;5065126;28;20086;-76
2021/08/22 10:26:01;;;;;;;7.55;3.88;;;22.60;99.90;;;;;;5069013;28;20473;-75
2021/08/22 10:28:45;;;;;;;5.43;3.50;;;22.60;99.90;;;;;;5064853;28;20020;-76
2021/08/22 10:31:12;;;;;;;10.52;4.40;;;22.70;99.90;;;;;;5057155;28;20025;-75
2021/08/22 10:34:15;;;;;;;8.05;3.60;;;22.70;99.90;;;;;;5066069;28;20025;-76
2021/08/22 10:36:42;;;;;;;8.25;3.80;;;22.70;99.90;;;;;;5065115;28;20028;-77
2021/08/22 10:39:23;;;;;;;7.80;3.80;;;23.00;99.90;;;;;;5065225;28;20581;-75
2021/08/22 10:41:59;;;;;;;8.85;4.18;;;23.20;99.90;;;;;;5061939;28;20055;-75
2021/08/22 10:44:34;;;;;;;7.75;4.30;;;23.30;99.90;;;;;;5067804;28;20020;-76
2021/08/22 10:47:12;;;;;;;5.30;3.85;;;23.20;99.90;;;;;;5065865;28;20032;-74
2021/08/22 10:49:52;;;;;;;6.57;3.80;;;22.90;99.90;;;;;;5065567;28;20056;-74
2021/08/22 10:52:27;;;;;;;8.95;3.67;;;22.80;99.90;;;;;;5065580;28;20045;-74
2021/08/22 10:55:05;;;;;;;4.47;2.90;;;22.80;99.90;;;;;;5068364;28;20028;-76
2021/08/22 11:00:26;;;;;;;4.30;2.58;;;23.40;99.90;;;;;;5058714;28;20025;-73
2021/08/22 11:02:56;;;;;;;4.10;2.22;;;23.70;99.90;;;;;;5067626;28;20029;-72
2021/08/22 11:05:27;;;;;;;5.10;2.20;;;23.80;99.90;;;;;;5068633;28;20466;-71
2021/08/22 11:07:55;;;;;;;4.63;2.38;;;24.10;99.90;;;;;;5059635;28;20492;-72
2021/08/22 11:10:22;;;;;;;2.42;1.73;;;24.20;99.90;;;;;;5066303;28;20028;-73
2021/08/22 11:12:52;;;;;;;3.92;1.63;;;24.30;99.90;;;;;;5062188;28;20123;-73
2021/08/22 11:15:25;;;;;;;2.72;1.63;;;24.40;99.90;;;;;;5071519;28;20025;-72
2021/08/22 11:17:56;;;;;;;3.88;2.40;;;24.10;99.90;;;;;;5062197;28;20090;-72
2021/08/22 11:20:24;;;;;;;2.20;1.90;;;24.30;99.90;;;;;;5062875;28;20025;-72
2021/08/22 11:23:17;;;;;;;3.80;2.42;;;24.50;99.90;;;;;;5065168;28;20044;-73
2021/08/22 11:25:47;;;;;;;3.70;2.40;;;24.40;99.90;;;;;;5065240;28;20017;-72
2021/08/22 11:28:14;;;;;;;4.40;2.40;;;24.60;99.90;;;;;;5066091;28;20363;-72
2021/08/22 11:30:41;;;;;;;2.47;2.28;;;24.60;99.90;;;;;;5066247;28;20115;-73
2021/08/22 11:33:08;;;;;;;4.00;2.22;;;24.40;99.90;;;;;;5062937;28;20033;-72
2021/08/22 11:35:41;;;;;;;4.45;2.35;;;24.40;99.90;;;;;;5061585;28;20028;-72
2021/08/22 11:38:07;;;;;;;2.38;2.17;;;24.20;99.90;;;;;;5064501;28;20028;-72
2021/08/22 11:40:35;;;;;;;2.72;1.95;;;24.30;99.90;;;;;;5068476;28;20527;-72
2021/08/22 11:43:03;;;;;;;2.35;1.92;;;24.20;99.90;;;;;;5061494;28;20393;-72
2021/08/22 11:45:32;;;;;;;3.17;2.35;;;24.10;99.90;;;;;;5064201;28;20020;-74
2021/08/22 11:47:58;;;;;;;4.43;2.47;;;24.40;99.90;;;;;;5065978;28;20020;-75
2021/08/22 11:50:29;;;;;;;3.53;2.65;;;24.50;99.90;;;;;;5056504;28;20104;-73
2021/08/22 11:52:58;;;;;;;2.75;2.10;;;24.50;99.90;;;;;;5050610;28;20432;-74
2021/08/22 11:55:32;;;;;;;3.08;2.50;;;24.60;99.90;;;;;;5063921;28;20071;-72
2021/08/22 11:58:17;;;;;;;2.40;2.10;;;24.80;99.90;;;;;;5069130;28;20031;-72
2021/08/22 12:00:44;;;;;;;3.58;2.75;;;24.70;99.90;;;;;;5064975;28;20114;-76
2021/08/22 12:03:12;;;;;;;5.47;2.90;;;24.60;99.90;;;;;;5053301;28;20039;-77
2021/08/22 12:05:53;;;;;;;5.38;2.72;;;24.60;99.90;;;;;;5055881;28;20047;-78
2021/08/22 12:08:19;;;;;;;4.97;2.65;;;24.70;99.90;;;;;;5062924;28;20031;-79
2021/08/22 12:10:45;;;;;;;3.38;3.08;;;24.80;99.90;;;;;;5069903;28;20024;-79
2021/08/22 12:13:15;;;;;;;3.15;2.75;;;24.90;99.90;;;;;;5055358;28;20032;-78
2021/08/22 12:15:40;;;;;;;3.20;2.67;;;24.80;99.90;;;;;;5068291;28;20020;-80
2021/08/22 12:18:17;;;;;;;4.07;2.55;;;24.80;99.90;;;;;;5071071;28;20024;-78
2021/08/22 12:20:44;;;;;;;2.95;2.63;;;25.10;99.90;;;;;;5066465;28;20061;-78
2021/08/22 12:23:11;;;;;;;3.80;2.78;;;24.90;99.90;;;;;;5067520;28;20025;-80
2021/08/22 12:25:40;;;;;;;2.65;2.20;;;24.80;99.90;;;;;;5072522;28;20036;-78
2021/08/22 12:28:20;;;;;;;4.50;2.70;;;24.70;99.90;;;;;;5070764;28;20024;-77
2021/08/22 12:31:00;;;;;;;4.05;2.47;;;24.80;99.90;;;;;;5066984;28;20040;-82
2021/08/22 12:33:28;;;;;;;2.97;2.65;;;25.10;99.90;;;;;;5065317;28;20032;-78
2021/08/22 12:36:22;;;;;;;6.25;2.90;;;25.10;99.90;;;;;;5063343;28;20032;-78
2021/08/22 12:38:59;;;;;;;2.53;2.13;;;25.10;99.90;;;;;;5066572;28;20032;-78
2021/08/22 12:41:37;;;;;;;4.38;2.75;;;25.20;99.90;;;;;;5072247;28;20020;-77
2021/08/22 12:44:05;;;;;;;4.95;2.72;;;25.40;99.90;;;;;;5069563;28;20020;-73
2021/08/22 12:46:32;;;;;;;3.67;2.70;;;25.70;99.90;;;;;;5063709;28;20009;-76
2021/08/22 12:48:58;;;;;;;3.90;3.33;;;25.60;99.90;;;;;;5048642;28;20136;-75
2021/08/22 12:51:26;;;;;;;4.78;2.75;;;25.50;99.90;;;;;;5064616;28;20420;-75